createdAt,value
2023-01-08T00:02:18.316Z,-3.4
2023-01-08T00:07:42.357Z,-3.5
2023-01-08T00:12:49.873Z,-3.6
2023-01-08T00:18:13.219Z,-3.6
2023-01-08T00:23:36.127Z,-3.7
2023-01-08T00:34:06.711Z,-3.8
2023-01-08T00:39:29.621Z,-3.9
2023-01-08T00:44:52.311Z,-3.9
2023-01-08T00:50:16.332Z,-4
2023-01-08T00:55:23.950Z,-4.1
2023-01-08T01:00:46.084Z,-4.2
2023-01-08T01:05:55.439Z,-4.3
2023-01-08T01:11:18.622Z,-4.3
2023-01-08T01:16:41.903Z,-4.4
2023-01-08T01:21:49.986Z,-4.4
2023-01-08T01:27:13.596Z,-4.5
2023-01-08T01:32:36.006Z,-4.6
2023-01-08T01:37:44.653Z,-4.6
2023-01-08T01:43:07.341Z,-4.7
2023-01-08T01:48:14.499Z,-4.7
2023-01-08T01:53:38.039Z,-4.8
2023-01-08T01:59:01.076Z,-4.8
2023-01-08T02:04:25.888Z,-4.9
2023-01-08T02:09:49.415Z,-4.9
2023-01-08T02:15:12.764Z,-5
2023-01-08T02:20:35.673Z,-5.1
2023-01-08T02:25:43.653Z,-5.1
2023-01-08T02:31:06.462Z,-5.1
2023-01-08T02:36:29.047Z,-5.2
2023-01-08T02:41:36.992Z,-5.3
2023-01-08T02:46:45.141Z,-5.3
2023-01-08T02:52:07.663Z,-5.4
2023-01-08T02:57:31.339Z,-5.4
2023-01-08T03:02:55.508Z,-5.5
2023-01-08T03:08:18.857Z,-5.6
2023-01-08T03:13:42.184Z,-5.6
2023-01-08T03:19:07.265Z,-5.6
2023-01-08T03:24:30.389Z,-5.7
2023-01-08T03:29:38.601Z,-5.8
2023-01-08T03:35:01.843Z,-5.8
2023-01-08T03:40:24.034Z,-5.9
2023-01-08T03:45:31.577Z,-5.8
2023-01-08T03:50:54.658Z,-5.9
2023-01-08T03:56:17.459Z,-5.9
2023-01-08T04:01:41.072Z,-5.9
2023-01-08T04:07:05.279Z,-5.9
2023-01-08T04:12:27.413Z,-5.9
2023-01-08T04:17:51.963Z,-5.9
2023-01-08T04:23:14.630Z,-5.9
2023-01-08T04:28:21.140Z,-6
2023-01-08T04:33:44.319Z,-6
2023-01-08T04:39:07.716Z,-6
2023-01-08T04:44:14.271Z,-6
2023-01-08T04:49:37.255Z,-6.1
2023-01-08T04:55:00.613Z,-6.1
2023-01-08T05:00:23.264Z,-6.1
2023-01-08T05:05:49.921Z,-6.2
2023-01-08T05:11:13.577Z,-6.3
2023-01-08T05:16:21.561Z,-6.3
2023-01-08T05:21:46.952Z,-6.3
2023-01-08T05:27:10.667Z,-6.4
2023-01-08T05:32:33.752Z,-6.4
2023-01-08T05:43:05.088Z,-6.5
2023-01-08T05:48:12.036Z,-6.6
2023-01-08T05:53:35.612Z,-6.6
2023-01-08T05:59:01.426Z,-6.6
2023-01-08T06:04:24.958Z,-6.6
2023-01-08T06:09:47.633Z,-6.7
2023-01-08T06:15:10.681Z,-6.7
2023-01-08T06:20:33.824Z,-6.7
2023-01-08T06:25:11.075Z,-6.6
2023-01-08T06:29:46.772Z,-6.6
2023-01-08T06:35:09.740Z,-6.5
2023-01-08T06:45:43.279Z,-5.9
2023-01-08T06:51:06.492Z,-5.4
2023-01-08T06:56:17.002Z,-4.8
2023-01-08T07:01:58.138Z,-4.1
2023-01-08T07:07:22.645Z,-3.3
2023-01-08T07:12:46.314Z,-2.5
2023-01-08T07:18:09.371Z,-1.4
2023-01-08T07:23:32.701Z,0
2023-01-08T07:28:56.043Z,1.6
2023-01-08T07:34:14.497Z,3.5
2023-01-08T07:39:38.646Z,30.9
2023-01-08T07:45:02.542Z,30.9
2023-01-08T07:50:25.139Z,29
2023-01-08T07:55:32.568Z,28.2
2023-01-08T08:00:40.589Z,40.8
2023-01-08T08:06:06.553Z,42.1
2023-01-08T08:11:29.138Z,43.1
2023-01-08T08:16:52.979Z,39.1
2023-01-08T08:22:15.614Z,36.8
2023-01-08T08:27:38.640Z,37.2
2023-01-08T08:33:02.714Z,38.4
2023-01-08T08:38:25.104Z,39.8
2023-01-08T08:43:48.408Z,40.3
2023-01-08T08:49:14.325Z,39.1
2023-01-08T08:54:38.911Z,37.6
2023-01-08T09:00:01.669Z,38.6
2023-01-08T09:05:27.278Z,39.9
2023-01-08T09:10:50.152Z,41.4
2023-01-08T09:16:12.966Z,42.9
2023-01-08T09:21:36.136Z,44.1
2023-01-08T09:26:59.103Z,45.3
2023-01-08T09:32:22.207Z,46.3
2023-01-08T09:37:45.678Z,47.4
2023-01-08T09:42:57.168Z,48.3
2023-01-08T09:53:30.328Z,49.8
2023-01-08T09:59:03.556Z,50.6
2023-01-08T10:04:28.038Z,51.3
2023-01-08T10:09:51.745Z,52.1
2023-01-08T10:15:14.507Z,52.6
2023-01-08T10:20:38.296Z,53.3
2023-01-08T10:26:01.436Z,53.8
2023-01-08T10:31:10.606Z,54.4
2023-01-08T10:36:34.478Z,54.9
2023-01-08T10:42:00.101Z,55.5
2023-01-08T10:47:25.213Z,56
2023-01-08T10:52:48.020Z,56.4
2023-01-08T10:57:40.838Z,57
2023-01-08T11:02:49.018Z,57.3
2023-01-08T11:13:18.813Z,58.1
2023-01-08T11:18:41.847Z,58.5
2023-01-08T11:24:04.796Z,58.8
2023-01-08T11:29:29.625Z,59.2
2023-01-08T11:34:52.799Z,59.4
2023-01-08T11:40:15.665Z,59.6
2023-01-08T11:45:41.467Z,59.9
2023-01-08T11:50:50.983Z,60.1
2023-01-08T11:55:42.149Z,60.3
2023-01-08T12:01:04.655Z,60.5
2023-01-08T12:06:27.848Z,60.6
2023-01-08T12:11:49.845Z,60.8
2023-01-08T12:16:57.136Z,60.9
2023-01-08T12:22:19.892Z,61
2023-01-08T12:28:11.145Z,61.1
2023-01-08T12:33:29.909Z,61.2
2023-01-08T12:38:52.596Z,61.1
2023-01-08T12:44:27.079Z,61.1
2023-01-08T12:49:49.375Z,61.1
2023-01-08T12:55:11.702Z,61.1
2023-01-08T13:00:34.570Z,61
2023-01-08T13:05:43.582Z,60.9
2023-01-08T13:11:06.297Z,60.7
2023-01-08T13:16:30.017Z,60.5
2023-01-08T13:21:37.421Z,60.2
2023-01-08T13:26:59.842Z,59.8
2023-01-08T13:31:50.997Z,59.6
2023-01-08T13:37:26.892Z,59.2
2023-01-08T13:42:53.672Z,58.8
2023-01-08T13:48:01.254Z,58.3
2023-01-08T13:52:53.043Z,57.9
2023-01-08T13:57:59.947Z,57.3
2023-01-08T14:03:08.299Z,56.8
2023-01-08T14:08:15.726Z,56.2
2023-01-08T14:13:38.746Z,55.5
2023-01-08T14:19:01.732Z,54.8
2023-01-08T14:24:24.782Z,54.1
2023-01-08T14:29:47.249Z,53.4
2023-01-08T14:35:10.379Z,50.6
2023-01-08T14:40:33.577Z,47.4
2023-01-08T14:45:50.387Z,44.6
2023-01-08T14:51:12.669Z,41.8
2023-01-08T14:56:35.676Z,39.4
2023-01-08T15:01:58.945Z,36.8
2023-01-08T15:07:24.020Z,34.3
2023-01-08T15:12:46.804Z,32
2023-01-08T15:18:09.682Z,29.8
2023-01-08T15:28:39.648Z,26
2023-01-08T15:38:22.811Z,23
2023-01-08T15:43:32.762Z,21.6
2023-01-08T15:48:41.659Z,20.3
2023-01-08T15:54:04.946Z,18.9
2023-01-08T15:59:27.876Z,17.8
2023-01-08T16:14:20.463Z,14.9
2023-01-08T16:19:43.627Z,14.1
2023-01-08T16:25:06.128Z,13.2
2023-01-08T16:30:28.512Z,12.4
2023-01-08T16:35:54.143Z,11.6
2023-01-08T16:41:16.908Z,10.9
2023-01-08T16:46:24.213Z,10.3
2023-01-08T16:56:38.987Z,9.1
2023-01-08T17:02:00.122Z,8.6
2023-01-08T17:12:17.678Z,7.6
2023-01-08T17:17:40.525Z,7.1
2023-01-08T17:27:55.290Z,6.2
2023-01-08T17:33:18.533Z,5.8
2023-01-08T17:38:41.932Z,5.3
2023-01-08T17:44:08.820Z,4.7
2023-01-08T17:49:31.720Z,4.2
2023-01-08T17:54:39.253Z,3.7
2023-01-08T18:00:02.588Z,3.3
2023-01-08T18:05:27.676Z,3
2023-01-08T18:10:51.139Z,2.6
2023-01-08T18:21:05.835Z,2.1
2023-01-08T18:26:13.522Z,1.8
2023-01-08T18:31:35.462Z,1.5
2023-01-08T18:36:58.892Z,1.3
2023-01-08T18:42:06.385Z,1.1
2023-01-08T18:47:29.598Z,0.9
2023-01-08T18:52:53.015Z,0.6
2023-01-08T18:58:01.491Z,0.5
2023-01-08T19:03:10.236Z,0.3
2023-01-08T19:08:17.373Z,0.1
2023-01-08T19:13:26.094Z,0.1
2023-01-08T19:18:50.992Z,-0.1
2023-01-08T19:23:58.986Z,-0.3
2023-01-08T19:29:09.179Z,-0.4
2023-01-08T19:34:35.776Z,-0.6
2023-01-08T19:39:58.560Z,-0.7
2023-01-08T19:45:05.866Z,-0.9
2023-01-08T19:50:31.679Z,-1
2023-01-08T19:55:58.139Z,-1.2
2023-01-08T20:01:09.502Z,-1.3
2023-01-08T20:06:24.679Z,-1.4
2023-01-08T20:11:55.200Z,-1.6
2023-01-08T20:17:11.535Z,-1.8
2023-01-08T20:22:43.670Z,-1.9
2023-01-08T20:27:53.386Z,-2
2023-01-08T20:33:18.650Z,-2.1
2023-01-08T20:38:10.445Z,-2.3
2023-01-08T20:43:32.866Z,-2.4
2023-01-08T20:49:03.508Z,-2.5
2023-01-08T20:54:38.380Z,-2.6
2023-01-08T21:04:37.464Z,-2.6
2023-01-08T21:09:44.863Z,-2.7
2023-01-08T21:19:43.322Z,-2.8
2023-01-08T21:29:41.997Z,-2.8
2023-01-08T21:34:33.487Z,-2.9
2023-01-08T21:39:40.899Z,-2.9
2023-01-08T21:44:47.744Z,-2.9
2023-01-08T21:49:55.245Z,-2.9
2023-01-08T21:55:04.307Z,-2.9
2023-01-08T22:00:11.178Z,-2.9
2023-01-08T22:05:18.668Z,-2.9
2023-01-08T22:10:25.923Z,-2.9
2023-01-08T22:15:49.023Z,-2.9
2023-01-08T22:21:11.874Z,-3
2023-01-08T22:26:19.085Z,-3
2023-01-08T22:31:26.707Z,-3.1
2023-01-08T22:36:51.828Z,-3.1
2023-01-08T22:42:01.046Z,-3.1
2023-01-08T22:47:24.026Z,-3.2
2023-01-08T22:52:31.074Z,-3.2
2023-01-08T22:57:53.782Z,-3.3
2023-01-08T23:03:16.392Z,-3.3
2023-01-08T23:08:23.821Z,-3.3
2023-01-08T23:18:29.956Z,-3.4
2023-01-08T23:23:36.996Z,-3.4
2023-01-08T23:29:00.334Z,-3.4
2023-01-08T23:34:22.833Z,-3.5
2023-01-08T23:40:03.709Z,-3.6
2023-01-08T23:45:11.342Z,-3.6
2023-01-08T23:50:33.723Z,-3.6
2023-01-08T23:55:40.135Z,-3.6
